Time;durP1;ratioP1;P1;durP2;ratioP2;P2;SDS_P1;SDS_P2;PMS_P1;PMS_P2;Temp;Humidity;BMP_temperature;BMP_pressure;BME280_temperature;BME280_humidity;BME280_pressure;Samples;Min_cycle;Max_cycle;Signal;HPM_P1;HPM_P2
2022/12/10 00:01:20;;;;;;;52.90;29.00;;;3.80;95.00;;;;;;5034910;28;20065;-74
2022/12/10 00:03:46;;;;;;;52.97;27.65;;;3.80;95.00;;;;;;5035869;28;20088;-73
2022/12/10 00:06:18;;;;;;;57.88;30.15;;;3.80;95.00;;;;;;5015094;28;20100;-72
2022/12/10 00:08:43;;;;;;;53.05;29.00;;;3.80;94.90;;;;;;5017105;28;20030;-73
2022/12/10 00:11:11;;;;;;;56.63;30.25;;;3.80;94.80;;;;;;5016975;28;20049;-73
2022/12/10 00:13:37;;;;;;;55.40;29.83;;;3.80;94.90;;;;;;5016671;28;20026;-73
2022/12/10 00:16:05;;;;;;;50.95;28.70;;;3.70;94.80;;;;;;5016902;28;20037;-73
2022/12/10 00:18:31;;;;;;;52.47;28.80;;;3.70;94.80;;;;;;5016895;28;20030;-73
2022/12/10 00:20:56;;;;;;;53.05;29.88;;;3.70;94.80;;;;;;5015567;28;20037;-73
2022/12/10 00:23:22;;;;;;;51.80;28.45;;;3.60;94.70;;;;;;5015805;28;20473;-72
2022/12/10 00:25:48;;;;;;;52.40;28.73;;;3.50;94.80;;;;;;5015553;28;20052;-73
2022/12/10 00:28:13;;;;;;;54.55;29.98;;;3.40;94.90;;;;;;5016401;28;20088;-72
2022/12/10 00:30:39;;;;;;;58.65;30.23;;;3.40;95.10;;;;;;5015298;28;20033;-73
2022/12/10 00:33:05;;;;;;;56.42;29.08;;;3.30;95.10;;;;;;5015576;28;20045;-72
2022/12/10 00:35:30;;;;;;;51.92;28.23;;;3.30;95.20;;;;;;5016650;28;20034;-73
2022/12/10 00:37:56;;;;;;;57.15;30.02;;;3.30;95.30;;;;;;5016768;28;20370;-72
2022/12/10 00:40:23;;;;;;;56.83;30.25;;;3.20;95.30;;;;;;5015165;28;20065;-72
2022/12/10 00:42:48;;;;;;;58.28;30.65;;;3.20;95.40;;;;;;5016419;28;20378;-73
2022/12/10 00:45:14;;;;;;;55.83;30.42;;;3.20;95.40;;;;;;5015261;28;20068;-73
2022/12/10 00:47:40;;;;;;;60.28;31.33;;;3.10;95.30;;;;;;5016111;28;20096;-73
2022/12/10 00:50:05;;;;;;;62.65;30.65;;;3.10;95.40;;;;;;5015992;28;20037;-73
2022/12/10 00:52:31;;;;;;;55.92;29.50;;;3.00;95.60;;;;;;5020469;28;20390;-73
2022/12/10 00:54:57;;;;;;;60.28;30.05;;;3.00;95.70;;;;;;5018139;28;20060;-72
2022/12/10 00:57:22;;;;;;;57.10;30.35;;;3.00;95.70;;;;;;5015375;28;20449;-73
2022/12/10 00:59:48;;;;;;;57.28;30.15;;;2.90;95.70;;;;;;5015454;28;20418;-73
2022/12/10 01:02:14;;;;;;;58.28;31.50;;;2.90;95.80;;;;;;5014896;28;20429;-72
2022/12/10 01:04:39;;;;;;;61.22;31.52;;;2.90;95.80;;;;;;5014907;28;20089;-72
2022/12/10 01:07:05;;;;;;;58.22;30.35;;;2.80;95.90;;;;;;5034527;28;20117;-73
2022/12/10 01:09:31;;;;;;;56.05;29.80;;;2.80;95.90;;;;;;5034437;28;20028;-72
2022/12/10 01:12:01;;;;;;;55.67;29.67;;;2.80;96.00;;;;;;5034275;28;20033;-73
2022/12/10 01:14:32;;;;;;;59.33;30.42;;;2.80;96.20;;;;;;5035613;28;20117;-73
2022/12/10 01:17:04;;;;;;;58.95;31.02;;;2.80;96.10;;;;;;5035480;28;20032;-73
2022/12/10 01:19:30;;;;;;;55.45;30.25;;;2.80;96.10;;;;;;5035626;28;20036;-73
2022/12/10 01:21:56;;;;;;;55.95;29.63;;;2.90;96.20;;;;;;5034299;28;20041;-72
2022/12/10 01:24:24;;;;;;;59.80;30.05;;;2.90;96.20;;;;;;5035637;28;20030;-73
2022/12/10 01:26:49;;;;;;;62.13;31.23;;;2.90;96.20;;;;;;5035257;28;20068;-73
2022/12/10 01:29:15;;;;;;;55.40;28.95;;;3.00;96.30;;;;;;5035237;28;20354;-72
2022/12/10 01:31:41;;;;;;;56.08;30.58;;;3.00;96.20;;;;;;5033744;28;20045;-73
2022/12/10 01:34:11;;;;;;;55.10;30.45;;;3.10;96.20;;;;;;5035122;28;20037;-73
2022/12/10 01:36:39;;;;;;;57.30;30.70;;;3.00;96.10;;;;;;5034741;28;20036;-73
2022/12/10 01:39:07;;;;;;;57.97;30.48;;;3.10;96.20;;;;;;5017262;28;20375;-73
2022/12/10 01:41:38;;;;;;;52.85;28.58;;;3.10;96.20;;;;;;5034938;28;20044;-73
2022/12/10 01:44:07;;;;;;;53.88;29.33;;;3.20;96.20;;;;;;5034208;28;20076;-73
2022/12/10 01:46:38;;;;;;;53.42;29.52;;;3.20;96.10;;;;;;5034046;28;20545;-73
2022/12/10 01:49:07;;;;;;;56.75;30.98;;;3.30;96.10;;;;;;5034869;28;20356;-73
2022/12/10 01:51:35;;;;;;;58.25;30.48;;;3.30;96.00;;;;;;5034870;28;20040;-73
2022/12/10 01:54:04;;;;;;;51.80;28.98;;;3.30;96.00;;;;;;5034544;28;20101;-73
2022/12/10 01:56:32;;;;;;;52.72;28.13;;;3.40;96.00;;;;;;5034709;28;20052;-73
2022/12/10 01:58:58;;;;;;;55.63;28.65;;;3.40;95.90;;;;;;5034803;28;20378;-73
2022/12/10 02:01:51;;;;;;;50.67;27.75;;;3.40;95.90;;;;;;5034822;28;20037;-73
2022/12/10 02:04:31;;;;;;;51.60;28.40;;;3.50;95.80;;;;;;5034782;28;20021;-73
2022/12/10 02:07:02;;;;;;;52.17;27.15;;;3.50;95.70;;;;;;5032361;28;20136;-73
2022/12/10 02:10:09;;;;;;;51.45;28.95;;;3.50;95.70;;;;;;5034862;28;20112;-73
2022/12/10 02:12:48;;;;;;;51.55;27.25;;;3.50;95.60;;;;;;5035237;28;20029;-73
2022/12/10 02:15:32;;;;;;;52.60;29.42;;;3.50;95.50;;;;;;5035593;28;20079;-73
2022/12/10 02:18:28;;;;;;;54.45;28.30;;;3.50;95.50;;;;;;5034681;28;20446;-73
2022/12/10 02:21:06;;;;;;;57.90;29.88;;;3.50;95.50;;;;;;5026819;28;20112;-73
2022/12/10 02:23:41;;;;;;;53.53;29.25;;;3.50;95.40;;;;;;5034260;28;20041;-72
2022/12/10 02:26:23;;;;;;;53.58;29.52;;;3.50;95.40;;;;;;5035071;28;20100;-73
2022/12/10 02:29:02;;;;;;;55.40;29.95;;;3.50;95.40;;;;;;5034749;28;20057;-73
2022/12/10 02:31:31;;;;;;;55.65;29.65;;;3.50;95.30;;;;;;5033614;28;20030;-73
2022/12/10 02:33:59;;;;;;;50.83;29.02;;;3.50;95.30;;;;;;5017681;28;20456;-73
2022/12/10 02:36:28;;;;;;;54.88;29.08;;;3.50;95.30;;;;;;5034561;28;20026;-73
2022/12/10 02:38:57;;;;;;;51.85;29.40;;;3.50;95.20;;;;;;5034556;28;20103;-73
2022/12/10 02:41:28;;;;;;;56.50;30.70;;;3.50;95.50;;;;;;5034132;28;20517;-73
2022/12/10 02:43:57;;;;;;;55.72;29.02;;;3.50;95.30;;;;;;5034728;28;20046;-73
2022/12/10 02:46:28;;;;;;;51.88;28.85;;;3.50;95.30;;;;;;5034364;28;20025;-73
2022/12/10 02:48:54;;;;;;;59.00;31.30;;;3.60;95.30;;;;;;5034685;28;20056;-73
2022/12/10 02:51:20;;;;;;;53.95;28.67;;;3.60;95.20;;;;;;5033041;28;20037;-73
2022/12/10 02:53:46;;;;;;;57.60;29.48;;;3.60;95.20;;;;;;5033949;28;20040;-74
2022/12/10 02:56:34;;;;;;;52.55;28.83;;;3.50;95.20;;;;;;5033059;28;20037;-73
2022/12/10 02:59:23;;;;;;;53.55;28.27;;;3.60;95.20;;;;;;5034228;28;20025;-73
2022/12/10 03:02:15;;;;;;;49.80;27.48;;;3.60;95.20;;;;;;5034559;28;20040;-73
2022/12/10 03:05:15;;;;;;;55.58;29.40;;;3.60;95.10;;;;;;5034382;28;20044;-73
2022/12/10 03:08:25;;;;;;;55.35;28.80;;;3.60;95.10;;;;;;5021025;28;20049;-73
2022/12/10 03:11:12;;;;;;;52.95;27.88;;;3.60;95.10;;;;;;5009495;28;20041;-73
2022/12/10 03:14:05;;;;;;;56.72;30.08;;;3.60;95.00;;;;;;5034285;28;20108;-73
2022/12/10 03:16:39;;;;;;;59.15;31.35;;;3.50;95.00;;;;;;5016407;28;20064;-73
2022/12/10 03:19:10;;;;;;;57.50;29.80;;;3.50;95.00;;;;;;5016355;28;20025;-73
2022/12/10 03:21:39;;;;;;;56.10;30.70;;;3.50;95.00;;;;;;5034064;28;20068;-73
2022/12/10 03:24:06;;;;;;;59.67;30.35;;;3.50;95.00;;;;;;5033785;28;20021;-72
2022/12/10 03:26:33;;;;;;;52.60;28.83;;;3.40;95.00;;;;;;5016544;28;20465;-73
2022/12/10 03:29:06;;;;;;;58.55;30.70;;;3.50;95.10;;;;;;5032656;28;20038;-72
2022/12/10 03:31:33;;;;;;;49.70;28.50;;;3.50;95.00;;;;;;5015956;28;20036;-73
2022/12/10 03:34:00;;;;;;;56.70;30.50;;;3.50;95.00;;;;;;5033130;28;20102;-72
2022/12/10 03:36:27;;;;;;;53.83;29.38;;;3.50;94.90;;;;;;5032476;28;20113;-73
2022/12/10 03:38:53;;;;;;;55.33;31.42;;;3.50;95.00;;;;;;5033330;28;20128;-72
2022/12/10 03:41:19;;;;;;;58.55;32.13;;;3.50;95.00;;;;;;5033448;28;20517;-72
2022/12/10 03:43:57;;;;;;;55.75;29.55;;;3.40;94.90;;;;;;5032218;28;20025;-73
2022/12/10 03:46:25;;;;;;;55.47;30.20;;;3.40;94.90;;;;;;5016645;28;20025;-72
2022/12/10 03:48:52;;;;;;;51.30;29.35;;;3.40;94.90;;;;;;5015749;28;20036;-72
2022/12/10 03:51:18;;;;;;;56.33;30.35;;;3.40;94.90;;;;;;5033553;28;20052;-72
2022/12/10 03:53:43;;;;;;;60.58;32.30;;;3.40;94.90;;;;;;5033479;28;20035;-72
2022/12/10 03:56:09;;;;;;;59.70;30.52;;;3.40;94.80;;;;;;5032356;28;20116;-72
2022/12/10 03:58:35;;;;;;;58.90;31.33;;;3.30;94.80;;;;;;5015713;28;20029;-72
2022/12/10 04:01:02;;;;;;;56.83;30.65;;;3.40;94.90;;;;;;5033404;28;20026;-73
2022/12/10 04:03:28;;;;;;;59.13;30.73;;;3.30;94.80;;;;;;5032126;28;20134;-73
2022/12/10 04:05:53;;;;;;;59.25;31.63;;;3.20;94.80;;;;;;5028794;28;20465;-72
2022/12/10 04:08:19;;;;;;;60.13;31.58;;;3.20;94.80;;;;;;4995906;28;20029;-72
2022/12/10 04:10:44;;;;;;;61.33;30.90;;;3.20;94.90;;;;;;4996665;28;20034;-72
2022/12/10 04:18:41;;;;;;;63.80;32.30;;;3.20;95.00;;;;;;5013854;28;20033;-73
2022/12/10 04:26:53;;;;;;;64.35;31.52;;;3.20;95.20;;;;;;5013575;28;20080;-72
2022/12/10 04:29:20;;;;;;;66.35;33.33;;;3.20;95.20;;;;;;4998376;28;20037;-72
2022/12/10 04:31:46;;;;;;;69.75;35.13;;;3.10;95.10;;;;;;5011934;28;20065;-72
2022/12/10 04:34:11;;;;;;;73.60;36.45;;;3.10;95.40;;;;;;5012173;28;20393;-72
2022/12/10 04:36:37;;;;;;;74.88;34.65;;;2.80;95.50;;;;;;5013650;28;20037;-72
2022/12/10 04:39:03;;;;;;;77.35;37.60;;;2.70;95.80;;;;;;5013158;28;20032;-72
2022/12/10 04:41:29;;;;;;;74.45;37.00;;;2.60;96.10;;;;;;5012012;28;20076;-72
2022/12/10 04:43:55;;;;;;;84.13;39.85;;;2.60;96.50;;;;;;5012435;28;20026;-72
2022/12/10 04:46:21;;;;;;;79.63;38.80;;;2.30;96.60;;;;;;5013886;28;20033;-72
2022/12/10 04:48:46;;;;;;;82.95;39.72;;;2.30;97.00;;;;;;5016838;28;20033;-72
2022/12/10 04:51:12;;;;;;;81.80;38.85;;;2.20;97.00;;;;;;5015610;28;20473;-72
2022/12/10 04:53:37;;;;;;;83.43;39.05;;;2.20;97.20;;;;;;4999345;28;20088;-72
2022/12/10 04:56:04;;;;;;;79.90;37.03;;;2.20;97.40;;;;;;5017285;28;20080;-72
2022/12/10 04:58:31;;;;;;;82.15;37.85;;;2.20;97.70;;;;;;5017011;28;20140;-73
2022/12/10 05:01:05;;;;;;;88.93;39.70;;;2.20;97.70;;;;;;5016720;28;20125;-72
2022/12/10 05:03:31;;;;;;;103.15;42.33;;;2.00;98.00;;;;;;5016561;28;20116;-72
2022/12/10 05:06:04;;;;;;;95.65;42.55;;;1.90;98.00;;;;;;5014915;28;20173;-72
2022/12/10 05:08:30;;;;;;;;;;;1.80;98.20;;;;;;5016901;28;20037;-72
2022/12/10 05:11:06;;;;;;;91.55;39.95;;;1.80;98.40;;;;;;5016454;28;19910;-72
2022/12/10 05:13:32;;;;;;;91.97;40.63;;;1.80;98.50;;;;;;5016481;28;20136;-72
2022/12/10 05:16:01;;;;;;;106.40;43.63;;;1.90;98.60;;;;;;5016346;28;20062;-73
2022/12/10 05:18:27;;;;;;;94.18;41.90;;;1.80;98.50;;;;;;5016379;28;20030;-73
2022/12/10 05:20:52;;;;;;;91.45;40.55;;;1.80;98.70;;;;;;5016645;28;20036;-73
2022/12/10 05:23:27;;;;;;;89.97;41.60;;;1.80;98.80;;;;;;5015879;28;20112;-72
2022/12/10 05:25:59;;;;;;;101.80;42.25;;;1.80;98.80;;;;;;5014837;28;20375;-72
2022/12/10 05:28:26;;;;;;;93.82;42.45;;;1.90;98.80;;;;;;5016467;28;20510;-73
2022/12/10 05:30:51;;;;;;;92.13;41.08;;;1.80;98.80;;;;;;5016403;28;20049;-72
2022/12/10 05:33:17;;;;;;;99.72;41.55;;;1.70;98.90;;;;;;5016324;28;20061;-73
2022/12/10 05:35:43;;;;;;;118.60;43.33;;;1.70;99.10;;;;;;5014681;28;20076;-72
2022/12/10 05:38:10;;;;;;;101.90;44.10;;;1.60;99.10;;;;;;5015160;28;20040;-72
2022/12/10 05:40:38;;;;;;;98.40;43.17;;;1.60;99.20;;;;;;5014689;28;20471;-72
2022/12/10 05:43:04;;;;;;;148.35;43.33;;;1.50;99.40;;;;;;5014912;28;20116;-72
2022/12/10 05:45:32;;;;;;;121.32;44.13;;;1.50;99.50;;;;;;4997942;28;20129;-73
2022/12/10 05:47:58;;;;;;;104.30;42.08;;;1.40;99.50;;;;;;5014652;28;20061;-72
2022/12/10 05:50:24;;;;;;;106.95;45.17;;;1.30;99.70;;;;;;5015348;28;20029;-72
2022/12/10 05:52:50;;;;;;;98.85;43.35;;;1.30;99.80;;;;;;5015622;28;20034;-72
2022/12/10 05:55:16;;;;;;;111.55;45.40;;;1.30;99.90;;;;;;5014152;28;20033;-72
2022/12/10 05:57:42;;;;;;;113.00;42.80;;;1.30;99.90;;;;;;5015405;28;20433;-72
2022/12/10 06:00:08;;;;;;;109.00;43.58;;;1.30;99.90;;;;;;5015251;28;20080;-73
2022/12/10 06:02:34;;;;;;;107.10;45.05;;;1.30;99.90;;;;;;5015651;28;20034;-73
2022/12/10 06:04:59;;;;;;;111.97;45.42;;;1.30;99.90;;;;;;5016419;28;20374;-73
2022/12/10 06:07:25;;;;;;;244.00;47.80;;;1.40;99.90;;;;;;5035129;28;20029;-73
2022/12/10 06:09:51;;;;;;;113.50;43.00;;;1.40;99.90;;;;;;5017225;28;20037;-73
2022/12/10 06:12:17;;;;;;;95.82;42.58;;;1.40;99.90;;;;;;5033638;28;20038;-73
2022/12/10 06:14:42;;;;;;;97.70;40.78;;;1.40;99.90;;;;;;5034905;28;20022;-73
2022/12/10 06:17:08;;;;;;;107.53;42.83;;;1.40;99.90;;;;;;5033987;28;20034;-73
2022/12/10 06:19:34;;;;;;;113.45;45.50;;;1.40;99.90;;;;;;5034743;28;20108;-72
2022/12/10 06:22:00;;;;;;;123.07;42.92;;;1.40;99.90;;;;;;5017810;28;20481;-72
2022/12/10 06:24:25;;;;;;;146.20;47.70;;;1.50;99.90;;;;;;5016928;28;20030;-72
2022/12/10 06:26:51;;;;;;;105.20;43.53;;;1.50;99.90;;;;;;5034498;28;20363;-73
2022/12/10 06:29:17;;;;;;;143.60;44.10;;;1.50;99.90;;;;;;5034032;28;20037;-72
2022/12/10 06:31:43;;;;;;;182.05;46.08;;;1.50;99.90;;;;;;5033305;28;20040;-73
2022/12/10 06:34:09;;;;;;;182.75;41.92;;;1.40;99.90;;;;;;5034627;28;20026;-72
2022/12/10 06:36:34;;;;;;;140.77;41.50;;;1.40;99.90;;;;;;5034522;28;20033;-72
2022/12/10 06:39:00;;;;;;;118.65;43.22;;;1.40;99.90;;;;;;5033728;28;20488;-72
2022/12/10 06:41:26;;;;;;;109.85;43.45;;;1.40;99.90;;;;;;5034086;28;20488;-72
2022/12/10 06:43:52;;;;;;;147.23;43.40;;;1.40;99.90;;;;;;5033417;28;20025;-72
2022/12/10 06:46:19;;;;;;;145.88;41.67;;;1.30;99.90;;;;;;5033445;28;20029;-72
2022/12/10 06:48:45;;;;;;;127.22;43.78;;;1.30;99.90;;;;;;5034299;28;20538;-73
2022/12/10 06:51:12;;;;;;;124.75;42.17;;;1.20;99.90;;;;;;5032899;28;20033;-73
2022/12/10 06:53:38;;;;;;;119.43;44.90;;;1.10;99.90;;;;;;5034217;28;20026;-72
2022/12/10 06:56:06;;;;;;;155.63;43.20;;;1.10;99.90;;;;;;5032700;28;20030;-72
2022/12/10 06:58:33;;;;;;;121.82;43.40;;;1.10;99.90;;;;;;5034156;28;20025;-73
2022/12/10 07:01:07;;;;;;;131.50;43.72;;;1.10;99.90;;;;;;5034081;28;20029;-73
2022/12/10 07:03:33;;;;;;;149.38;44.97;;;1.10;99.90;;;;;;5016175;28;20038;-73
2022/12/10 07:05:59;;;;;;;106.85;41.92;;;1.10;99.90;;;;;;5029157;28;20065;-73
2022/12/10 07:08:25;;;;;;;115.50;43.08;;;1.10;99.90;;;;;;5013310;28;20109;-72
2022/12/10 07:10:51;;;;;;;94.15;38.70;;;1.20;99.90;;;;;;5012744;28;20180;-73
2022/12/10 07:13:17;;;;;;;102.93;39.28;;;1.20;99.90;;;;;;5014070;28;20026;-72
2022/12/10 07:15:42;;;;;;;180.45;41.67;;;1.20;99.90;;;;;;5012700;28;20470;-72
2022/12/10 07:18:08;;;;;;;108.28;41.60;;;1.20;99.90;;;;;;5014012;28;20030;-73
2022/12/10 07:20:33;;;;;;;89.90;36.25;;;1.20;99.90;;;;;;5012865;28;20418;-72
2022/12/10 07:22:59;;;;;;;109.95;40.35;;;1.10;99.90;;;;;;5014360;28;20072;-76
2022/12/10 07:25:25;;;;;;;100.95;37.78;;;1.20;99.90;;;;;;5013477;28;20033;-75
2022/12/10 07:27:50;;;;;;;92.75;35.28;;;1.30;99.90;;;;;;5012820;28;20063;-76
2022/12/10 07:30:16;;;;;;;131.07;39.60;;;1.30;99.90;;;;;;5014045;28;20030;-75
2022/12/10 07:32:41;;;;;;;91.40;36.42;;;1.30;99.90;;;;;;5012439;28;20033;-72
2022/12/10 07:35:07;;;;;;;100.95;36.90;;;1.30;99.90;;;;;;4997268;28;20034;-76
2022/12/10 07:37:33;;;;;;;109.72;40.22;;;1.40;99.90;;;;;;5014190;28;20106;-76
2022/12/10 07:39:59;;;;;;;106.80;40.58;;;1.40;99.90;;;;;;5012774;28;20034;-77
2022/12/10 07:42:24;;;;;;;140.98;44.38;;;1.40;99.90;;;;;;5012212;28;20038;-77
2022/12/10 07:44:50;;;;;;;95.60;38.97;;;1.40;99.90;;;;;;5014102;28;20075;-76
2022/12/10 07:47:16;;;;;;;101.32;38.53;;;1.40;99.90;;;;;;4996059;28;20034;-76
2022/12/10 07:49:42;;;;;;;87.75;38.72;;;1.50;99.90;;;;;;5012477;28;20108;-76
2022/12/10 07:52:08;;;;;;;99.70;37.65;;;1.50;99.90;;;;;;5013823;28;20536;-75
2022/12/10 07:54:34;;;;;;;111.97;36.85;;;1.60;99.90;;;;;;5012474;28;20467;-75
2022/12/10 07:56:59;;;;;;;81.10;34.78;;;1.60;99.90;;;;;;5012568;28;20041;-76
2022/12/10 07:59:25;;;;;;;112.25;36.85;;;1.50;99.90;;;;;;5012449;28;20029;-76
2022/12/10 08:01:51;;;;;;;119.95;35.33;;;1.60;99.90;;;;;;5012191;28;20045;-75
2022/12/10 08:04:17;;;;;;;97.47;37.50;;;1.50;99.90;;;;;;5013779;28;20028;-75
2022/12/10 08:06:43;;;;;;;102.57;36.10;;;1.60;99.90;;;;;;5027189;28;20049;-77
2022/12/10 08:09:09;;;;;;;105.65;38.38;;;1.60;99.90;;;;;;5015687;28;20029;-76
2022/12/10 08:11:35;;;;;;;164.73;39.60;;;1.50;99.90;;;;;;5033365;28;20025;-77
2022/12/10 08:14:01;;;;;;;94.53;37.33;;;1.50;99.90;;;;;;5032040;28;20377;-77
2022/12/10 08:16:28;;;;;;;100.07;38.53;;;1.50;99.90;;;;;;5033825;28;20037;-77
2022/12/10 08:18:57;;;;;;;151.88;44.67;;;1.50;99.90;;;;;;5033273;28;20117;-77
2022/12/10 08:21:25;;;;;;;102.97;38.92;;;1.60;99.90;;;;;;5033688;28;20030;-77
2022/12/10 08:23:51;;;;;;;95.82;37.47;;;1.60;99.90;;;;;;5019597;28;20529;-77
2022/12/10 08:26:22;;;;;;;114.70;40.83;;;1.70;99.90;;;;;;5035922;28;20118;-76
2022/12/10 08:28:49;;;;;;;96.68;39.97;;;1.80;99.90;;;;;;5037087;28;20065;-73
2022/12/10 08:31:17;;;;;;;132.90;41.80;;;1.80;99.90;;;;;;5037207;28;20048;-73
2022/12/10 08:33:43;;;;;;;108.82;41.67;;;1.80;99.90;;;;;;5019178;28;20029;-73
2022/12/10 08:36:11;;;;;;;113.70;40.78;;;1.80;99.90;;;;;;5036077;28;20021;-73
2022/12/10 08:38:38;;;;;;;100.25;37.95;;;1.80;99.90;;;;;;5037133;28;20037;-73
2022/12/10 08:41:12;;;;;;;97.38;37.28;;;1.90;99.90;;;;;;5036683;28;20028;-72
2022/12/10 08:43:39;;;;;;;101.15;40.63;;;2.00;99.90;;;;;;5036761;28;20037;-72
2022/12/10 08:46:05;;;;;;;93.97;38.97;;;2.10;99.90;;;;;;5036910;28;20017;-72
2022/12/10 08:48:31;;;;;;;95.60;39.08;;;2.10;99.90;;;;;;5036871;28;20458;-72
2022/12/10 08:50:57;;;;;;;88.30;38.97;;;2.20;99.90;;;;;;5018659;28;20033;-72
2022/12/10 08:53:23;;;;;;;88.10;36.25;;;2.30;99.90;;;;;;5018871;28;20057;-72
2022/12/10 08:55:54;;;;;;;90.72;38.28;;;2.40;99.90;;;;;;5036742;28;20355;-72
2022/12/10 08:58:20;;;;;;;89.38;37.20;;;2.40;99.90;;;;;;5036725;28;20512;-72
2022/12/10 09:00:47;;;;;;;79.85;34.13;;;2.40;99.90;;;;;;5002288;28;20029;-72
2022/12/10 09:03:12;;;;;;;85.95;36.65;;;2.30;99.90;;;;;;5036126;28;20136;-72
2022/12/10 09:05:38;;;;;;;83.70;36.05;;;2.30;99.90;;;;;;5031453;28;20585;-72
2022/12/10 09:08:04;;;;;;;94.10;36.75;;;2.40;99.90;;;;;;5016475;28;20030;-72
2022/12/10 09:10:30;;;;;;;86.22;37.70;;;2.40;99.90;;;;;;4998957;28;20030;-73
2022/12/10 09:12:55;;;;;;;86.93;35.45;;;2.40;99.90;;;;;;5016476;28;20113;-72
2022/12/10 09:15:21;;;;;;;78.15;34.40;;;2.40;99.90;;;;;;5014862;28;20061;-72
2022/12/10 09:17:47;;;;;;;83.75;32.35;;;2.40;99.90;;;;;;5016040;28;20030;-72
2022/12/10 09:20:12;;;;;;;74.95;32.95;;;2.40;99.90;;;;;;5016197;28;20030;-72
2022/12/10 09:22:38;;;;;;;82.10;32.35;;;2.40;99.90;;;;;;5014868;28;20049;-71
2022/12/10 09:25:09;;;;;;;80.45;31.15;;;2.50;99.90;;;;;;5015059;28;20030;-72
2022/12/10 09:27:35;;;;;;;84.75;31.60;;;2.40;99.90;;;;;;5016180;28;20022;-72
2022/12/10 09:30:01;;;;;;;88.20;31.73;;;2.40;99.90;;;;;;5014716;28;20099;-71
2022/12/10 09:32:27;;;;;;;77.28;32.30;;;2.50;99.90;;;;;;5014103;28;20034;-70
2022/12/10 09:34:53;;;;;;;87.72;34.35;;;2.40;99.80;;;;;;5013818;28;20033;-73
2022/12/10 09:37:19;;;;;;;103.53;32.95;;;2.30;99.90;;;;;;5015930;28;20088;-72
2022/12/10 09:39:45;;;;;;;157.23;33.90;;;2.30;99.90;;;;;;5014717;28;20109;-72
2022/12/10 09:42:35;;;;;;;67.90;30.05;;;2.30;99.90;;;;;;5015899;28;20030;-72
2022/12/10 09:45:10;;;;;;;90.90;34.47;;;2.30;99.90;;;;;;5031386;28;20465;-72
2022/12/10 09:48:04;;;;;;;75.00;33.05;;;2.30;99.90;;;;;;5015104;28;20026;-74
2022/12/10 09:50:47;;;;;;;83.18;33.55;;;2.30;99.90;;;;;;5007600;28;20046;-73
2022/12/10 09:53:17;;;;;;;94.15;33.90;;;2.30;99.90;;;;;;5031203;28;20065;-75
2022/12/10 09:55:48;;;;;;;101.43;34.17;;;2.40;99.90;;;;;;5015886;28;20068;-72
2022/12/10 09:58:18;;;;;;;85.10;31.67;;;2.40;99.90;;;;;;5015462;28;20037;-73
2022/12/10 10:00:48;;;;;;;89.55;33.95;;;2.40;99.90;;;;;;5015587;28;20461;-74
2022/12/10 10:03:15;;;;;;;78.53;32.92;;;2.40;99.90;;;;;;5015303;28;20042;-74
2022/12/10 10:05:46;;;;;;;103.10;34.03;;;2.40;99.90;;;;;;5019788;28;20079;-73
2022/12/10 10:08:23;;;;;;;97.13;32.28;;;2.40;99.90;;;;;;5033572;28;20053;-73
2022/12/10 10:10:49;;;;;;;92.68;33.63;;;2.30;99.90;;;;;;5033466;28;20112;-74
2022/12/10 10:13:20;;;;;;;104.72;34.45;;;2.30;99.90;;;;;;5033611;28;20038;-73
2022/12/10 10:15:47;;;;;;;111.82;35.47;;;2.30;99.90;;;;;;5033400;28;20030;-73
2022/12/10 10:18:39;;;;;;;77.15;32.90;;;2.20;99.90;;;;;;5033205;28;20119;-73
2022/12/10 10:21:16;;;;;;;97.70;32.60;;;2.30;99.90;;;;;;5034212;28;20028;-74
2022/12/10 10:23:45;;;;;;;129.05;34.88;;;2.30;99.90;;;;;;5016517;28;20029;-74
2022/12/10 10:26:11;;;;;;;113.90;34.97;;;2.20;99.90;;;;;;5033874;28;20029;-74
2022/12/10 10:28:40;;;;;;;100.50;33.70;;;2.20;99.90;;;;;;5016701;28;20036;-73
2022/12/10 10:31:23;;;;;;;84.03;33.15;;;2.10;99.90;;;;;;5016068;28;20465;-73
2022/12/10 10:33:58;;;;;;;86.07;34.03;;;2.20;99.90;;;;;;5033888;28;20026;-73
2022/12/10 10:36:43;;;;;;;112.03;36.25;;;2.30;99.90;;;;;;5033654;28;20079;-73
2022/12/10 10:39:30;;;;;;;86.22;34.72;;;2.40;99.90;;;;;;5016313;28;20022;-72
2022/12/10 10:41:58;;;;;;;86.35;33.00;;;2.30;99.90;;;;;;5014958;28;20449;-73
2022/12/10 10:44:27;;;;;;;94.43;35.50;;;2.40;99.90;;;;;;5015418;28;20068;-73
2022/12/10 10:46:56;;;;;;;82.20;32.40;;;2.40;99.90;;;;;;5015829;28;20025;-74
2022/12/10 10:49:24;;;;;;;75.40;32.38;;;2.50;99.90;;;;;;5032171;28;20030;-74
2022/12/10 10:51:51;;;;;;;84.40;33.90;;;2.50;99.90;;;;;;5033456;28;20583;-73
2022/12/10 10:54:39;;;;;;;87.35;35.25;;;2.50;99.90;;;;;;5015936;28;20477;-73
2022/12/10 10:57:23;;;;;;;81.30;32.13;;;2.60;99.90;;;;;;5016585;28;20056;-73
2022/12/10 10:59:51;;;;;;;88.95;34.10;;;2.60;99.90;;;;;;5033730;28;20021;-72
2022/12/10 11:02:36;;;;;;;94.05;37.22;;;2.60;99.90;;;;;;5015400;28;20483;-73
2022/12/10 11:05:19;;;;;;;79.35;34.33;;;2.60;99.90;;;;;;5016304;28;20095;-73
2022/12/10 11:08:15;;;;;;;91.63;33.05;;;2.50;99.90;;;;;;5090672;27;20141;-73
2022/12/10 11:10:54;;;;;;;79.90;33.60;;;2.50;99.90;;;;;;5089909;28;20036;-73
2022/12/10 11:13:28;;;;;;;83.63;32.47;;;2.50;99.90;;;;;;5091055;28;20025;-73
2022/12/10 11:16:14;;;;;;;78.78;32.17;;;2.60;99.90;;;;;;5090743;28;20032;-72
2022/12/10 11:18:42;;;;;;;75.60;30.15;;;2.60;99.90;;;;;;5089245;28;20020;-73
2022/12/10 11:21:11;;;;;;;77.60;32.10;;;2.70;99.90;;;;;;5090062;28;20081;-73
2022/12/10 11:23:43;;;;;;;76.28;32.13;;;2.70;99.90;;;;;;5089573;28;20074;-73
2022/12/10 11:26:45;;;;;;;67.85;29.30;;;2.70;99.90;;;;;;5089261;28;20034;-71
2022/12/10 11:29:20;;;;;;;74.20;29.42;;;2.70;99.90;;;;;;5090910;28;20040;-78
2022/12/10 11:32:05;;;;;;;66.93;29.13;;;2.80;99.90;;;;;;5075147;28;20021;-75
2022/12/10 11:35:03;;;;;;;73.57;29.48;;;2.70;99.90;;;;;;5068763;28;20029;-74
2022/12/10 11:37:42;;;;;;;55.95;24.67;;;2.70;99.90;;;;;;5044086;28;20539;-74
2022/12/10 11:40:45;;;;;;;61.60;27.13;;;2.70;99.90;;;;;;5080664;28;20477;-76
2022/12/10 11:43:13;;;;;;;68.05;30.27;;;4.90;99.90;;;;;;5090100;28;20046;-76
2022/12/10 11:45:50;;;;;;;64.72;30.55;;;5.40;99.90;;;;;;5088285;28;20036;-75
2022/12/10 11:48:42;;;;;;;82.78;29.98;;;5.20;99.40;;;;;;5084293;28;20052;-77
2022/12/10 11:51:34;;;;;;;72.03;26.50;;;4.80;98.80;;;;;;5055556;28;20036;-76
2022/12/10 11:54:12;;;;;;;56.60;25.20;;;4.40;98.20;;;;;;5077614;28;20040;-76
2022/12/10 11:56:43;;;;;;;62.28;27.95;;;4.00;98.30;;;;;;5088184;28;20020;-74
2022/12/10 11:59:28;;;;;;;81.90;27.15;;;3.70;98.50;;;;;;5089954;28;20028;-76
2022/12/10 12:02:32;;;;;;;56.22;26.73;;;3.50;98.70;;;;;;5088358;28;20032;-76
2022/12/10 12:05:14;;;;;;;61.70;24.95;;;3.40;98.90;;;;;;5054990;28;20028;-76
2022/12/10 12:07:39;;;;;;;75.43;27.73;;;3.40;99.40;;;;;;5080090;28;20054;-76
2022/12/10 12:10:08;;;;;;;84.53;30.05;;;3.30;99.60;;;;;;5088136;28;20115;-76
2022/12/10 12:12:39;;;;;;;66.05;29.95;;;3.30;99.70;;;;;;5087941;28;20123;-76
2022/12/10 12:15:29;;;;;;;61.83;27.35;;;3.30;99.70;;;;;;5084878;28;20047;-74
2022/12/10 12:18:15;;;;;;;64.85;28.23;;;3.30;99.90;;;;;;5062382;28;20043;-76
2022/12/10 12:20:51;;;;;;;59.90;27.85;;;3.30;99.80;;;;;;5067412;28;20440;-74
2022/12/10 12:23:35;;;;;;;67.80;29.38;;;3.30;99.80;;;;;;5055737;28;20032;-74
2022/12/10 12:26:08;;;;;;;66.15;27.75;;;3.30;99.70;;;;;;5054385;28;20079;-74
2022/12/10 12:29:21;;;;;;;65.53;28.23;;;3.20;99.70;;;;;;5054230;28;20596;-75
2022/12/10 12:32:21;;;;;;;64.88;29.15;;;3.20;99.80;;;;;;5049289;28;20043;-75
2022/12/10 12:34:55;;;;;;;75.57;31.38;;;3.20;99.80;;;;;;5047247;28;20120;-75
2022/12/10 12:37:24;;;;;;;84.20;33.17;;;3.20;99.70;;;;;;5054186;28;20029;-73
2022/12/10 12:40:04;;;;;;;82.28;33.72;;;3.10;99.70;;;;;;5054081;28;20095;-76
2022/12/10 12:42:38;;;;;;;82.88;32.58;;;3.00;99.80;;;;;;5070434;28;20020;-73
2022/12/10 12:45:34;;;;;;;76.30;32.42;;;2.90;99.90;;;;;;5073504;28;20029;-74
2022/12/10 12:48:24;;;;;;;82.80;32.33;;;2.90;99.90;;;;;;5074970;28;20115;-74
2022/12/10 12:51:09;;;;;;;73.97;31.27;;;2.90;99.90;;;;;;5073390;28;20025;-75
2022/12/10 12:53:35;;;;;;;78.95;32.65;;;3.00;99.90;;;;;;5074328;28;20443;-73
2022/12/10 12:56:04;;;;;;;78.97;32.80;;;3.00;99.90;;;;;;5055447;28;20233;-75
2022/12/10 12:58:42;;;;;;;84.55;32.28;;;3.00;99.90;;;;;;5074731;28;20091;-77
2022/12/10 13:01:35;;;;;;;73.25;26.83;;;3.00;99.90;;;;;;5075274;28;20036;-77
2022/12/10 13:04:03;;;;;;;100.55;30.85;;;3.00;99.90;;;;;;5074032;28;20033;-76
2022/12/10 13:06:31;;;;;;;68.05;28.35;;;2.90;99.90;;;;;;5074693;28;20076;-77